Time;durP1;ratioP1;P1;durP2;ratioP2;P2;SDS_P1;SDS_P2;PMS_P1;PMS_P2;Temp;Humidity;BMP_temperature;BMP_pressure;BME280_temperature;BME280_humidity;BME280_pressure;Samples;Min_cycle;Max_cycle;Signal;HPM_P1;HPM_P2
2021/12/11 00:02:29;;;;;;;16.17;8.23;;;4.50;59.20;;;2.64;66.01;100065.34;8382658;28;20759;-84
2021/12/11 00:06:36;;;;;;;13.43;7.25;;;4.50;59.10;;;2.68;66.08;100082.41;8423117;28;20104;-84
2021/12/11 00:10:46;;;;;;;13.98;7.13;;;4.50;59.20;;;2.68;66.28;100092.69;8384806;28;20039;-83
2021/12/11 00:14:55;;;;;;;11.95;6.90;;;4.40;59.20;;;2.69;65.93;100098.69;8424083;28;20122;-83
2021/12/11 00:19:14;;;;;;;11.65;5.57;;;4.50;59.30;;;2.69;66.18;100096.97;8404296;28;20032;-84
2021/12/11 00:23:41;;;;;;;11.40;5.72;;;4.50;59.30;;;2.71;66.22;100107.22;8417652;28;20123;-83
2021/12/11 00:27:47;;;;;;;12.38;6.72;;;4.50;59.40;;;2.70;65.75;100116.69;8407809;28;20469;-83
2021/12/11 00:31:54;;;;;;;13.50;7.32;;;4.50;59.20;;;2.55;65.89;100088.84;8399342;28;20032;-83
2021/12/11 00:35:56;;;;;;;11.02;6.95;;;4.40;59.10;;;2.68;66.30;100120.22;8386241;28;20036;-83
2021/12/11 00:40:24;;;;;;;13.75;7.05;;;4.50;59.10;;;2.64;66.19;100127.19;8399513;28;20123;-83
2021/12/11 00:44:55;;;;;;;10.07;6.18;;;4.40;59.10;;;2.42;66.12;100109.00;8418315;28;20114;-83
2021/12/11 00:49:21;;;;;;;11.88;6.82;;;4.40;59.10;;;2.53;65.73;100137.84;8403000;28;20046;-83
2021/12/11 00:53:31;;;;;;;;;;;4.40;59.00;;;2.45;66.09;100142.41;8425942;28;20035;-83
2021/12/11 00:57:32;;;;;;;11.05;5.28;;;4.40;59.10;;;2.42;66.04;100150.22;8424563;28;20348;-83
2021/12/11 01:01:48;;;;;;;11.82;6.68;;;4.30;59.00;;;2.53;65.80;100180.81;8418273;28;20075;-83
2021/12/11 01:05:55;;;;;;;11.43;6.32;;;4.30;59.10;;;2.46;65.74;100185.31;8421920;28;20032;-83
2021/12/11 01:10:06;;;;;;;11.75;6.65;;;4.30;59.00;;;2.47;66.25;100187.00;8420339;28;20063;-82
2021/12/11 01:14:33;;;;;;;12.07;6.55;;;4.30;59.00;;;2.37;65.80;100185.59;8406335;28;20070;-82
2021/12/11 01:18:35;;;;;;;9.55;5.78;;;4.20;59.00;;;2.38;65.87;100193.28;8423986;28;20028;-82
2021/12/11 01:22:37;;;;;;;12.95;7.20;;;4.20;59.00;;;2.37;65.65;100201.03;8406738;28;20038;-82
2021/12/11 01:26:49;;;;;;;14.00;7.28;;;4.20;59.00;;;2.28;65.99;100199.59;8407005;28;20126;-82
2021/12/11 01:30:52;;;;;;;9.68;5.97;;;4.10;59.00;;;2.35;66.05;100221.72;8405579;28;20453;-82
2021/12/11 01:34:54;;;;;;;11.95;6.47;;;4.10;59.00;;;2.33;65.64;100227.81;8394291;28;20111;-82
2021/12/11 01:39:05;;;;;;;14.00;7.53;;;4.00;58.90;;;2.28;65.79;100224.53;8421825;28;20039;-82
2021/12/11 01:43:10;;;;;;;11.25;6.10;;;4.10;59.00;;;2.33;65.84;100240.69;8423644;28;20206;-81
2021/12/11 01:47:20;;;;;;;15.07;6.28;;;4.10;59.00;;;2.22;65.88;100231.53;8412063;28;20038;-82
2021/12/11 01:51:56;;;;;;;12.75;6.97;;;4.10;59.00;;;2.28;66.07;100263.16;8429237;28;20060;-82
2021/12/11 01:56:18;;;;;;;12.30;6.53;;;4.10;59.00;;;2.17;65.66;100251.41;8429352;28;20047;-82
2021/12/11 02:00:35;;;;;;;14.18;6.72;;;4.10;58.90;;;1.99;66.18;100231.34;8429108;28;20123;-81
2021/12/11 02:04:42;;;;;;;12.48;6.95;;;4.10;58.90;;;2.11;66.07;100261.06;8424230;28;20136;-81
2021/12/11 02:08:44;;;;;;;10.02;5.55;;;4.00;58.90;;;2.02;66.04;100254.41;8429293;28;20035;-81
2021/12/11 02:12:46;;;;;;;13.93;6.57;;;4.00;59.00;;;2.16;66.33;100280.66;8423935;28;20040;-81
2021/12/11 02:16:50;;;;;;;11.63;6.55;;;4.00;59.20;;;2.11;66.12;100264.47;8386433;28;20118;-81
2021/12/11 02:20:59;;;;;;;13.40;6.83;;;4.00;59.30;;;2.19;65.80;100272.84;8411542;28;20027;-81
2021/12/11 02:25:10;;;;;;;11.57;6.80;;;3.90;59.20;;;2.29;65.85;100275.13;8411872;28;20123;-81
2021/12/11 02:29:21;;;;;;;12.63;7.47;;;4.00;59.30;;;2.13;65.88;100244.69;8394972;28;20040;-81
2021/12/11 02:33:34;;;;;;;11.68;6.32;;;4.00;59.20;;;2.30;66.19;100276.84;8428857;28;20043;-81
2021/12/11 02:37:52;;;;;;;10.18;5.93;;;4.10;59.20;;;2.27;65.85;100282.06;8410883;28;20107;-81
2021/12/11 02:42:03;;;;;;;12.90;6.68;;;4.10;59.30;;;2.33;65.86;100281.91;8427684;28;20122;-81
2021/12/11 02:46:19;;;;;;;13.07;7.32;;;4.20;59.30;;;2.32;66.25;100270.75;8399843;28;20544;-81
2021/12/11 02:50:53;;;;;;;10.73;6.00;;;4.10;59.30;;;2.32;66.05;100283.66;8427541;28;20479;-81
2021/12/11 02:55:09;;;;;;;11.30;5.95;;;4.10;59.30;;;2.37;66.40;100291.22;8420833;28;20175;-81
2021/12/11 02:59:16;;;;;;;9.85;5.63;;;4.20;59.30;;;2.34;66.26;100296.47;8406156;28;20038;-81
2021/12/11 03:03:29;;;;;;;12.07;6.80;;;4.20;59.30;;;2.41;66.35;100309.13;8410363;28;20127;-81
2021/12/11 03:07:36;;;;;;;10.10;5.63;;;4.20;59.30;;;2.41;65.98;100305.72;8428589;28;20121;-81
2021/12/11 03:11:38;;;;;;;13.23;6.85;;;4.20;59.30;;;2.46;65.99;100314.16;8426477;28;20115;-81
2021/12/11 03:15:40;;;;;;;11.40;6.13;;;4.20;59.20;;;2.44;66.04;100305.63;8428320;28;20572;-81
2021/12/11 03:19:44;;;;;;;12.32;6.95;;;4.30;59.20;;;2.43;66.17;100303.91;8426773;28;20040;-81
2021/12/11 03:23:48;;;;;;;12.30;6.35;;;4.20;59.20;;;2.40;66.12;100306.59;8410725;28;20119;-81
2021/12/11 03:27:50;;;;;;;14.45;7.18;;;4.30;59.20;;;2.46;66.03;100321.03;8418955;28;20032;-81
2021/12/11 03:31:52;;;;;;;10.38;6.03;;;4.30;59.20;;;2.38;65.81;100308.41;8427534;28;20118;-80
2021/12/11 03:35:55;;;;;;;8.73;5.60;;;4.20;59.10;;;2.40;65.80;100329.78;8408889;28;20040;-81
2021/12/11 03:39:57;;;;;;;12.57;5.55;;;4.10;59.00;;;2.09;66.21;100276.53;8419274;28;20157;-81
2021/12/11 03:43:59;;;;;;;12.10;5.72;;;4.20;59.10;;;2.44;65.78;100346.88;8426475;28;20404;-81
2021/12/11 03:48:18;;;;;;;10.98;5.95;;;4.20;59.10;;;2.36;66.14;100344.50;8426808;28;20408;-81
2021/12/11 03:52:20;;;;;;;9.45;5.38;;;4.20;59.10;;;2.41;65.90;100349.53;8375777;28;20540;-80
2021/12/11 03:56:22;;;;;;;12.73;6.07;;;4.10;59.00;;;2.37;66.21;100353.06;8421013;28;20115;-80
2021/12/11 04:00:38;;;;;;;11.88;6.32;;;4.20;59.20;;;2.22;65.83;100334.56;8425833;28;20119;-80
2021/12/11 04:04:45;;;;;;;9.40;5.72;;;4.20;59.20;;;2.41;66.18;100377.88;8410611;28;20036;-81
2021/12/11 04:08:49;;;;;;;11.70;6.10;;;4.20;59.10;;;2.42;65.86;100395.00;8408314;28;20420;-80
2021/12/11 04:12:50;;;;;;;10.07;6.57;;;4.10;59.10;;;2.41;65.98;100398.47;8417211;28;20115;-80
2021/12/11 04:16:53;;;;;;;9.82;5.63;;;4.20;59.20;;;2.32;66.15;100390.97;8413346;28;20126;-81
2021/12/11 04:20:55;;;;;;;8.82;5.57;;;4.20;59.20;;;2.38;65.91;100412.28;8405895;28;20122;-81
2021/12/11 04:24:57;;;;;;;11.07;5.55;;;4.10;59.20;;;2.32;65.75;100421.91;8407139;28;20222;-81
2021/12/11 04:28:58;;;;;;;12.15;6.25;;;4.20;59.20;;;2.18;66.14;100409.38;8407973;28;20050;-81
2021/12/11 04:33:00;;;;;;;11.15;6.07;;;4.10;59.20;;;2.37;65.74;100446.66;8420267;28;20119;-80
2021/12/11 04:37:14;;;;;;;11.00;5.95;;;4.20;59.20;;;2.36;65.97;100457.03;8401518;28;20038;-80
2021/12/11 04:41:23;;;;;;;10.43;5.55;;;4.20;59.20;;;2.36;66.03;100462.16;8416906;28;20126;-80
2021/12/11 04:45:41;;;;;;;10.85;5.97;;;4.10;59.10;;;2.27;66.21;100455.53;8405905;28;20452;-80
2021/12/11 04:49:53;;;;;;;10.98;6.25;;;4.10;59.10;;;2.31;65.90;100479.47;8423913;28;20369;-80
2021/12/11 05:11:04;;;;;;;10.40;5.97;;;4.10;59.10;;;2.11;65.87;100485.97;8414453;28;20062;-80
2021/12/11 05:15:33;;;;;;;10.77;6.00;;;4.00;59.10;;;2.22;66.01;100514.03;8420441;22;20051;-81
2021/12/11 05:19:36;;;;;;;11.20;6.32;;;4.10;59.10;;;2.25;65.98;100531.16;8401500;28;20497;-80
2021/12/11 05:23:39;;;;;;;10.80;6.43;;;4.10;59.10;;;2.20;66.04;100529.53;8432546;28;20119;-81
2021/12/11 05:27:43;;;;;;;12.38;7.22;;;4.10;59.10;;;2.22;66.09;100532.91;8381736;28;20116;-80
2021/12/11 05:31:45;;;;;;;11.63;6.80;;;4.00;59.10;;;2.11;65.80;100527.19;8391882;28;20112;-82
2021/12/11 05:35:48;;;;;;;11.98;6.20;;;3.90;59.00;;;2.21;65.93;100550.97;8398790;28;20823;-80
2021/12/11 05:39:50;;;;;;;12.15;6.85;;;4.00;59.10;;;2.22;66.15;100555.25;8405957;28;20123;-81
2021/12/11 05:43:53;;;;;;;11.57;6.43;;;4.00;59.20;;;2.12;66.33;100535.75;8390409;28;20119;-81
2021/12/11 05:47:55;;;;;;;11.95;6.07;;;4.00;59.20;;;2.26;66.16;100571.47;8396355;28;20120;-81
2021/12/11 05:51:57;;;;;;;12.75;6.82;;;4.00;59.20;;;2.22;65.76;100574.13;8372368;28;20054;-80
2021/12/11 05:56:06;;;;;;;13.05;5.90;;;4.00;59.20;;;2.22;66.26;100583.59;8397535;28;20479;-80
2021/12/11 06:00:10;;;;;;;12.15;6.55;;;4.00;59.10;;;2.11;65.92;100570.97;8386014;28;20568;-81
2021/12/11 06:04:21;;;;;;;11.70;5.72;;;4.00;59.20;;;2.20;65.84;100593.09;8392301;28;20119;-81
2021/12/11 06:08:22;;;;;;;10.38;5.80;;;4.00;59.10;;;2.17;66.41;100588.84;8380324;28;20043;-81
2021/12/11 06:12:26;;;;;;;9.63;5.75;;;4.00;59.20;;;2.20;66.07;100605.97;8394108;28;20108;-82
2021/12/11 06:16:28;;;;;;;9.85;5.45;;;3.90;59.10;;;2.20;66.14;100611.97;8397268;28;20463;-81
2021/12/11 06:20:32;;;;;;;9.65;5.60;;;4.00;59.20;;;2.15;65.85;100615.53;8396273;28;20120;-81
2021/12/11 06:24:34;;;;;;;11.07;6.28;;;4.00;59.10;;;2.06;65.95;100601.13;8396831;28;20136;-82
2021/12/11 06:28:36;;;;;;;9.68;5.53;;;4.00;59.10;;;2.16;66.41;100623.22;8395991;28;20041;-81
2021/12/11 06:32:38;;;;;;;11.68;6.40;;;4.00;59.20;;;2.11;66.15;100617.31;8379042;28;20112;-81
2021/12/11 06:36:44;;;;;;;13.40;6.28;;;4.00;59.20;;;2.13;66.17;100630.16;8357403;28;20043;-80
2021/12/11 06:40:46;;;;;;;12.45;5.70;;;4.00;59.30;;;2.20;66.14;100650.59;8358444;28;20130;-80
2021/12/11 06:44:49;;;;;;;12.35;5.90;;;3.90;59.20;;;2.12;66.03;100637.03;8379153;28;20032;-81
2021/12/11 06:48:51;;;;;;;12.18;6.65;;;4.00;59.20;;;2.11;66.20;100647.38;8364250;28;20029;-81
2021/12/11 06:52:55;;;;;;;11.85;5.88;;;4.10;59.20;;;2.13;66.23;100653.34;8389085;28;20043;-80
2021/12/11 06:56:57;;;;;;;9.43;5.77;;;4.00;59.30;;;2.12;66.38;100652.50;8381921;28;20119;-81
2021/12/11 07:01:00;;;;;;;14.85;7.88;;;4.00;59.20;;;2.14;65.81;100658.47;8379931;28;20123;-84
2021/12/11 07:05:04;;;;;;;18.77;9.00;;;4.00;59.30;;;2.00;66.20;100642.47;8390122;28;20116;-80
2021/12/11 07:09:09;;;;;;;11.93;6.97;;;4.00;59.30;;;2.10;66.06;100671.44;8371523;28;20036;-79
2021/12/11 07:13:11;;;;;;;15.43;7.17;;;4.00;59.20;;;2.20;65.92;100694.38;8393131;28;20109;-82
2021/12/11 07:17:13;;;;;;;11.32;5.93;;;4.00;59.20;;;2.16;66.46;100691.91;8395173;28;20233;-79
2021/12/11 07:21:15;;;;;;;12.70;6.55;;;3.70;59.00;;;2.07;66.33;100687.78;8393484;28;20585;-80
2021/12/11 07:25:34;;;;;;;21.27;10.30;;;4.00;59.10;;;2.12;66.19;100706.56;8392762;28;20123;-81
2021/12/11 07:29:38;;;;;;;14.13;7.70;;;3.90;59.10;;;2.14;66.19;100729.75;8396010;28;20120;-80
2021/12/11 07:33:39;;;;;;;9.98;6.05;;;4.00;59.20;;;2.08;66.27;100740.16;8394205;28;20577;-81
2021/12/11 07:37:47;;;;;;;12.35;6.50;;;3.90;59.20;;;2.16;66.05;100759.75;8394848;28;20111;-80
2021/12/11 07:41:50;;;;;;;12.07;5.55;;;3.90;59.20;;;2.15;66.35;100777.78;8384884;28;20500;-80
2021/12/11 07:45:55;;;;;;;9.20;5.97;;;4.00;59.40;;;2.15;65.98;100778.63;8393153;28;20115;-80
2021/12/11 07:49:57;;;;;;;9.93;5.65;;;4.00;59.20;;;2.12;66.19;100785.59;8388335;28;20115;-80
2021/12/11 07:53:59;;;;;;;11.75;6.13;;;4.00;59.20;;;2.18;66.29;100808.63;8382110;28;20127;-79
2021/12/11 07:58:03;;;;;;;12.32;5.82;;;4.00;59.20;;;2.20;66.31;100815.47;8395233;28;20550;-79
2021/12/11 08:02:05;;;;;;;12.07;6.38;;;4.00;59.20;;;2.14;66.16;100807.88;8393418;28;20119;-79
2021/12/11 08:06:09;;;;;;;11.70;6.18;;;4.00;59.30;;;2.17;66.12;100812.94;8377580;28;20548;-81
2021/12/11 08:10:17;;;;;;;10.80;5.70;;;4.00;59.60;;;2.23;65.93;100817.13;8390781;28;20123;-81
2021/12/11 08:14:20;;;;;;;10.80;5.95;;;4.00;59.20;;;2.15;66.45;100814.69;8372168;28;20043;-80
2021/12/11 08:18:25;;;;;;;11.02;6.03;;;4.00;59.30;;;2.29;66.13;100826.47;8392513;28;20194;-80
2021/12/11 08:22:26;;;;;;;12.10;5.40;;;4.10;59.30;;;2.25;66.17;100824.84;8377993;28;20036;-80
2021/12/11 08:26:28;;;;;;;11.20;6.10;;;4.10;59.30;;;2.26;66.29;100823.94;8377480;28;20105;-80
2021/12/11 08:30:33;;;;;;;12.07;5.43;;;4.10;59.30;;;2.20;66.72;100809.47;8390241;28;20035;-80
2021/12/11 08:34:36;;;;;;;13.20;5.82;;;4.10;59.30;;;2.32;66.43;100847.91;8408520;28;20119;-81
2021/12/11 08:38:38;;;;;;;11.75;5.95;;;4.10;59.30;;;2.34;66.30;100850.41;8363050;28;20036;-82
2021/12/11 08:42:40;;;;;;;12.05;6.15;;;4.20;59.40;;;2.30;66.14;100844.50;8390979;28;20123;-80
2021/12/11 08:46:57;;;;;;;12.80;6.10;;;4.20;59.40;;;2.36;66.14;100864.13;8387347;28;20131;-80
2021/12/11 08:51:08;;;;;;;13.45;6.90;;;4.20;59.30;;;2.40;66.13;100873.47;8390277;28;20045;-80
2021/12/11 08:55:16;;;;;;;11.38;5.80;;;4.20;59.30;;;2.40;66.53;100876.06;8391847;28;20579;-79
2021/12/11 08:59:23;;;;;;;9.40;5.60;;;4.20;59.30;;;2.32;66.28;100872.78;8369996;28;20557;-79
2021/12/11 09:03:47;;;;;;;16.80;6.97;;;4.20;59.30;;;2.35;66.04;100876.19;8407803;28;20127;-80
2021/12/11 09:08:07;;;;;;;12.65;6.45;;;4.20;59.30;;;2.40;66.57;100892.41;8389722;28;20119;-78
2021/12/11 09:12:26;;;;;;;13.82;5.97;;;4.20;59.30;;;2.37;66.31;100900.16;8386606;28;20037;-80
2021/12/11 09:16:34;;;;;;;9.07;5.25;;;4.20;59.30;;;2.38;66.26;100911.34;8374287;28;20112;-79
2021/12/11 09:20:56;;;;;;;17.38;8.05;;;4.20;59.30;;;2.40;66.15;100917.28;8389919;28;20120;-79
2021/12/11 09:25:08;;;;;;;14.32;6.15;;;4.20;59.30;;;2.35;66.59;100919.97;8390143;28;20117;-79
2021/12/11 09:29:37;;;;;;;11.98;6.00;;;4.20;59.30;;;2.33;66.28;100921.72;8391296;28;20033;-78
2021/12/11 09:33:51;;;;;;;9.10;5.20;;;4.20;59.30;;;2.34;66.43;100928.56;8381741;28;20024;-78
2021/12/11 09:38:07;;;;;;;11.90;5.30;;;4.20;59.40;;;2.30;66.15;100932.09;8388542;28;20115;-81
2021/12/11 09:42:08;;;;;;;10.75;5.60;;;4.20;59.40;;;2.44;66.10;100960.19;8389465;28;20128;-79
2021/12/11 09:46:19;;;;;;;10.40;5.10;;;4.20;59.40;;;2.38;66.15;100942.25;8392119;28;20119;-80
2021/12/11 09:50:31;;;;;;;11.02;5.60;;;4.20;59.80;;;2.43;66.47;100955.88;8392710;28;20446;-78
2021/12/11 09:54:35;;;;;;;10.10;5.35;;;4.10;59.40;;;2.34;66.07;100945.75;8396109;28;20458;-78
2021/12/11 09:58:40;;;;;;;12.30;5.93;;;4.20;59.40;;;2.45;66.43;100964.44;8381378;28;20048;-79
2021/12/11 10:02:42;;;;;;;10.38;5.25;;;4.20;59.40;;;2.33;66.39;100949.22;8395205;28;20111;-78
2021/12/11 10:07:13;;;;;;;9.23;5.07;;;4.30;59.40;;;2.44;66.38;100961.03;8392222;28;20272;-80
2021/12/11 10:11:28;;;;;;;8.80;4.97;;;4.30;59.40;;;2.36;66.38;100959.47;8377166;28;20032;-79
2021/12/11 10:15:34;;;;;;;10.88;5.70;;;4.30;59.40;;;2.49;66.49;100976.41;8391170;28;20397;-80
2021/12/11 10:19:39;;;;;;;11.27;5.78;;;4.30;59.50;;;2.47;66.14;100967.00;8381239;28;20417;-81
2021/12/11 10:23:48;;;;;;;11.70;5.22;;;4.30;59.40;;;2.52;66.61;100984.09;8359219;28;20614;-80
2021/12/11 10:27:49;;;;;;;10.60;5.20;;;4.30;59.40;;;2.25;66.20;100943.34;8374568;28;20119;-78
2021/12/11 10:32:03;;;;;;;10.82;5.63;;;4.30;59.40;;;2.51;66.24;100989.25;8378607;28;20036;-79
2021/12/11 10:36:11;;;;;;;10.73;5.45;;;4.30;59.40;;;2.53;66.56;101000.41;8370433;28;20127;-79
2021/12/11 10:40:31;;;;;;;10.80;5.65;;;4.30;59.50;;;2.54;66.36;100995.25;8354547;28;20119;-77
2021/12/11 10:44:38;;;;;;;10.90;5.68;;;4.40;59.50;;;2.56;66.55;101006.34;8372216;28;20107;-79
2021/12/11 10:48:44;;;;;;;13.38;6.88;;;4.40;59.40;;;2.59;66.42;101011.47;8374046;28;20128;-78
2021/12/11 10:52:49;;;;;;;12.27;5.85;;;4.40;59.50;;;2.63;66.72;101013.09;8342482;28;20520;-78
2021/12/11 10:56:52;;;;;;;13.43;6.07;;;4.40;59.50;;;2.67;66.13;101024.19;8376230;28;20033;-78
2021/12/11 11:01:07;;;;;;;11.85;5.85;;;4.40;59.50;;;2.70;66.28;101023.31;8363492;28;20047;-78
2021/12/11 11:05:17;;;;;;;10.90;5.65;;;4.60;59.50;;;2.65;66.52;101016.50;8380892;28;20631;-78
2021/12/11 11:09:21;;;;;;;8.40;4.85;;;4.50;59.50;;;2.70;66.80;101031.03;8387355;28;20515;-78
2021/12/11 11:13:25;;;;;;;13.05;6.47;;;4.50;59.40;;;2.70;66.72;101055.13;8366653;28;20042;-77
2021/12/11 11:17:32;;;;;;;8.65;5.20;;;4.50;59.40;;;2.71;66.32;101053.38;8385924;28;20055;-78
2021/12/11 11:21:44;;;;;;;9.20;5.63;;;4.50;59.40;;;2.68;66.23;101056.03;8366764;28;20024;-77
2021/12/11 11:25:50;;;;;;;11.20;6.03;;;4.50;59.40;;;2.68;66.52;101050.88;8366955;28;20527;-79
2021/12/11 11:29:53;;;;;;;15.90;6.07;;;4.50;59.40;;;2.73;66.75;101065.38;8358127;28;20028;-78
2021/12/11 11:33:55;;;;;;;12.80;6.63;;;4.50;59.40;;;2.78;66.22;101083.31;8355796;28;20051;-78
2021/12/11 11:38:00;;;;;;;10.55;5.40;;;4.60;59.40;;;2.77;66.24;101086.78;8354126;28;20043;-77
2021/12/11 11:42:10;;;;;;;9.70;5.10;;;4.60;59.40;;;2.69;66.47;101073.19;8369396;28;20486;-77
2021/12/11 11:46:14;;;;;;;8.30;5.28;;;4.60;59.40;;;2.72;66.06;101092.00;8379970;28;20048;-77
2021/12/11 11:50:20;;;;;;;10.85;5.25;;;4.60;59.40;;;2.82;66.18;101110.78;8384081;28;20036;-78
2021/12/11 11:54:25;;;;;;;10.30;6.20;;;4.60;59.40;;;2.74;66.60;101090.28;8363594;28;20042;-76
2021/12/11 11:58:29;;;;;;;9.13;5.72;;;4.60;59.40;;;2.83;66.40;101113.31;8367025;28;20031;-77
2021/12/11 12:02:31;;;;;;;10.88;5.72;;;4.60;59.40;;;2.92;66.35;101137.25;8385744;28;20075;-76
2021/12/11 12:06:35;;;;;;;11.43;6.47;;;4.70;59.40;;;2.90;66.38;101131.28;8383404;28;20041;-76
2021/12/11 12:10:39;;;;;;;15.18;8.02;;;4.70;59.40;;;2.88;66.45;101129.56;8384274;28;20700;-77
2021/12/11 12:14:44;;;;;;;13.60;6.32;;;4.70;59.40;;;2.91;66.09;101141.56;8381816;28;20461;-76
2021/12/11 12:18:46;;;;;;;12.68;6.55;;;4.70;59.40;;;2.91;66.49;101151.88;8385221;28;20048;-77
2021/12/11 12:22:53;;;;;;;11.38;6.10;;;4.70;59.30;;;2.93;66.49;101157.03;8384315;28;20055;-77
2021/12/11 12:26:55;;;;;;;10.55;5.88;;;4.60;59.30;;;2.87;66.18;101155.41;8383775;28;20044;-76
2021/12/11 12:31:08;;;;;;;11.23;6.25;;;4.70;59.40;;;2.90;66.57;101169.97;8383844;28;20043;-76
2021/12/11 12:35:14;;;;;;;10.07;5.32;;;4.70;59.40;;;2.84;66.32;101169.19;8378936;28;20523;-76
2021/12/11 12:39:22;;;;;;;10.63;5.35;;;4.70;59.30;;;2.90;66.26;101186.28;8385715;28;20036;-75
2021/12/11 12:43:55;;;;;;;11.90;6.60;;;4.70;59.30;;;2.77;66.44;101164.16;8381309;28;20153;-77
2021/12/11 12:48:08;;;;;;;11.77;6.18;;;4.70;59.30;;;2.90;66.37;101204.34;8364654;28;20255;-76
2021/12/11 12:52:17;;;;;;;11.77;6.75;;;4.70;59.30;;;2.90;66.52;101203.50;8375470;28;20029;-79
2021/12/11 12:56:29;;;;;;;9.63;6.10;;;4.70;59.30;;;2.77;66.09;101184.78;8370371;28;20115;-77
2021/12/11 13:00:57;;;;;;;9.77;5.78;;;4.70;59.30;;;2.87;66.37;101217.28;8376766;28;20078;-77
2021/12/11 13:05:20;;;;;;;9.15;5.88;;;4.70;59.30;;;2.84;66.44;101207.88;8410739;22;20066;-73
2021/12/11 13:09:41;;;;;;;9.15;5.80;;;4.70;59.30;;;2.85;66.26;101219.88;8433758;28;20047;-76
2021/12/11 13:13:43;;;;;;;12.85;6.70;;;4.70;59.30;;;2.84;66.25;101215.63;8433276;28;20115;-74
2021/12/11 13:17:49;;;;;;;15.63;7.80;;;4.60;59.20;;;2.85;66.02;101219.03;8448755;28;20123;-76
2021/12/11 13:22:05;;;;;;;9.13;5.95;;;4.70;59.30;;;2.90;66.40;101227.56;8445945;27;20040;-75
2021/12/11 13:26:10;;;;;;;10.80;6.43;;;4.60;59.30;;;2.91;66.22;101238.72;8461667;27;20130;-76
2021/12/11 13:30:22;;;;;;;14.77;7.30;;;4.70;59.30;;;2.91;66.16;101243.88;8491279;27;20035;-77
2021/12/11 13:34:24;;;;;;;14.85;7.88;;;4.70;59.30;;;2.93;66.25;101255.88;8480503;27;20498;-76
2021/12/11 13:38:30;;;;;;;14.38;7.90;;;4.70;59.30;;;2.92;66.19;101261.06;8491746;27;20023;-76
2021/12/11 13:42:33;;;;;;;14.85;8.43;;;4.70;59.30;;;2.86;66.27;101257.72;8479971;27;20467;-76
2021/12/11 13:46:35;;;;;;;14.48;8.80;;;4.60;59.20;;;2.82;66.01;101257.78;8477118;27;20118;-74
2021/12/11 13:50:44;;;;;;;12.75;7.13;;;4.50;59.10;;;2.88;66.43;101279.16;8449791;27;20028;-75
2021/12/11 13:54:48;;;;;;;13.13;6.65;;;4.70;59.30;;;2.69;66.48;101251.09;8470864;27;20115;-75
2021/12/11 13:58:50;;;;;;;13.73;7.20;;;4.60;59.30;;;2.85;66.19;101288.69;8464773;27;20111;-75
2021/12/11 14:02:53;;;;;;;12.57;6.85;;;4.50;59.20;;;2.84;66.44;101292.13;8462342;27;20118;-74
2021/12/11 14:07:11;;;;;;;10.93;6.32;;;4.60;59.60;;;2.83;66.12;101298.16;8476414;27;20564;-76
2021/12/11 14:11:16;;;;;;;11.05;6.35;;;4.50;59.20;;;2.83;66.41;101313.63;8431725;27;20121;-74
2021/12/11 14:15:19;;;;;;;13.90;7.30;;;4.50;59.30;;;2.86;66.43;101308.41;8440933;27;20126;-75
2021/12/11 14:19:21;;;;;;;12.40;6.88;;;4.60;59.30;;;2.85;66.06;101317.03;8468680;27;20118;-77
2021/12/11 14:23:31;;;;;;;15.50;7.63;;;4.60;59.30;;;2.84;66.40;101333.41;8456993;27;20421;-75
2021/12/11 14:27:33;;;;;;;13.70;7.32;;;4.60;59.30;;;2.81;66.32;101342.03;8463102;27;20027;-76
2021/12/11 14:31:38;;;;;;;12.95;7.15;;;4.60;59.30;;;2.83;66.36;101368.63;8479539;27;20026;-75
2021/12/11 14:35:40;;;;;;;11.30;6.40;;;4.60;59.30;;;2.77;65.85;101354.97;8459379;27;20115;-76
2021/12/11 14:39:47;;;;;;;11.55;6.93;;;4.60;59.30;;;2.80;66.13;101366.09;8473892;27;20118;-75
2021/12/11 14:43:49;;;;;;;14.20;6.57;;;4.50;59.30;;;2.80;66.36;101379.00;8445511;27;20118;-77
2021/12/11 14:47:52;;;;;;;13.88;6.63;;;4.50;59.30;;;2.78;66.33;101388.50;8491204;27;20153;-75
2021/12/11 14:51:57;;;;;;;14.23;7.50;;;4.50;59.30;;;2.79;66.52;101384.19;8439659;27;20618;-75
2021/12/11 14:56:05;;;;;;;19.13;9.13;;;4.50;59.30;;;2.76;66.27;101391.97;8455362;27;20118;-75
2021/12/11 15:00:13;;;;;;;19.88;9.52;;;4.50;59.40;;;2.75;66.26;101395.41;8461536;27;20131;-77
2021/12/11 15:04:24;;;;;;;16.27;9.30;;;4.60;59.40;;;2.81;66.37;101405.66;8487767;27;20110;-76
2021/12/11 15:08:28;;;;;;;16.63;9.27;;;4.50;59.40;;;2.80;66.28;101411.66;8481890;27;20114;-76
2021/12/11 15:12:30;;;;;;;15.70;8.40;;;4.50;59.40;;;2.78;66.13;101408.25;8470002;27;20043;-76
2021/12/11 15:16:34;;;;;;;11.45;7.18;;;4.60;59.40;;;2.68;66.22;101404.94;8491334;27;20551;-76
2021/12/11 15:20:42;;;;;;;12.63;6.55;;;4.50;59.30;;;2.76;66.45;101420.34;8477312;27;20119;-77
2021/12/11 15:24:44;;;;;;;11.30;6.63;;;4.50;59.30;;;2.75;65.94;101427.19;8494347;27;20035;-77
2021/12/11 15:28:46;;;;;;;9.23;6.00;;;4.50;59.40;;;2.77;66.09;101435.78;8473370;27;20114;-76
2021/12/11 15:32:52;;;;;;;10.63;5.80;;;4.50;59.40;;;2.76;66.44;101428.06;8482936;27;20039;-77
2021/12/11 15:36:55;;;;;;;9.05;5.85;;;4.50;59.40;;;2.68;66.37;101427.31;8469433;27;20559;-76
2021/12/11 15:40:57;;;;;;;10.07;5.72;;;4.30;59.30;;;2.71;66.30;101437.56;8474636;27;20126;-80
2021/12/11 15:45:00;;;;;;;9.23;5.88;;;4.50;59.40;;;2.74;66.00;101453.88;8476783;27;20138;-76
2021/12/11 15:49:03;;;;;;;9.38;6.10;;;4.60;59.40;;;2.82;66.12;101458.94;8484119;27;20042;-77
2021/12/11 15:53:05;;;;;;;10.60;6.25;;;4.60;59.40;;;2.81;66.46;101459.81;8479669;27;20563;-76
2021/12/11 15:57:12;;;;;;;11.80;6.75;;;4.60;59.40;;;2.80;66.36;101473.56;8478616;27;20111;-77
2021/12/11 16:01:25;;;;;;;9.05;6.03;;;4.60;59.40;;;2.70;66.50;101456.47;8461496;27;20474;-75
2021/12/11 16:05:28;;;;;;;11.40;7.05;;;4.60;59.30;;;2.76;66.23;101482.22;8487175;27;20041;-77
2021/12/11 16:09:35;;;;;;;8.90;5.57;;;4.50;59.30;;;2.75;66.12;101489.09;8461684;27;20137;-76
2021/12/11 16:13:38;;;;;;;12.27;6.80;;;4.50;59.30;;;2.75;66.14;101488.22;8435884;27;20119;-76
2021/12/11 16:17:40;;;;;;;11.52;7.03;;;4.50;59.30;;;2.75;65.98;101494.25;8462186;27;20040;-77
2021/12/11 16:21:42;;;;;;;11.65;6.97;;;4.50;59.30;;;2.75;66.39;101495.97;8438346;27;20047;-76
2021/12/11 16:25:45;;;;;;;10.18;6.50;;;4.50;59.30;;;2.74;65.94;101497.69;8477013;27;20126;-76
2021/12/11 16:29:48;;;;;;;10.85;6.88;;;4.50;59.30;;;2.71;66.31;101491.72;8450509;27;20206;-77
2021/12/11 16:33:50;;;;;;;8.70;5.75;;;4.50;59.30;;;2.79;66.42;101513.13;8416787;27;20728;-76
2021/12/11 16:37:54;;;;;;;13.65;7.40;;;4.50;59.40;;;2.78;66.16;101522.59;8422648;27;20032;-73
2021/12/11 16:42:00;;;;;;;11.37;6.80;;;4.60;59.40;;;2.67;66.20;101496.03;8441475;27;20045;-74
2021/12/11 16:46:03;;;;;;;11.80;6.57;;;4.50;59.30;;;2.74;66.55;101514.91;8446991;27;20042;-74
2021/12/11 16:50:08;;;;;;;9.60;6.28;;;4.50;59.30;;;2.72;66.49;101532.09;8447087;27;20039;-74
2021/12/11 16:54:10;;;;;;;10.75;7.03;;;4.50;59.20;;;2.62;66.46;101526.19;8448621;27;20039;-75
2021/12/11 16:58:12;;;;;;;9.95;6.32;;;4.50;59.60;;;2.71;66.46;101538.16;8477752;28;20031;-78
2021/12/11 17:02:21;;;;;;;10.50;6.38;;;4.40;59.30;;;2.63;66.26;101538.22;8444222;28;20304;-76
2021/12/11 17:06:30;;;;;;;12.60;7.50;;;4.40;59.30;;;2.64;66.66;101527.88;8453392;28;20039;-73
2021/12/11 17:10:39;;;;;;;14.45;8.20;;;4.50;59.40;;;2.72;66.46;101552.75;8467471;28;20032;-73
2021/12/11 17:14:41;;;;;;;12.57;7.82;;;4.50;59.40;;;2.65;66.34;101547.66;8465424;28;20069;-74
2021/12/11 17:18:43;;;;;;;11.30;6.57;;;4.50;59.40;;;2.72;66.30;101560.47;8418947;28;20028;-76
2021/12/11 17:22:47;;;;;;;13.85;7.60;;;4.40;59.30;;;2.69;66.10;101557.94;8460103;28;20579;-76
2021/12/11 17:26:50;;;;;;;12.07;7.22;;;4.50;59.30;;;2.64;66.29;101550.22;8458766;28;20038;-74
2021/12/11 17:30:53;;;;;;;12.65;7.45;;;4.40;59.20;;;2.64;65.99;101566.53;8426647;28;20483;-75
2021/12/11 17:35:13;;;;;;;13.98;8.00;;;4.40;59.20;;;2.63;66.53;101561.41;8442763;28;20407;-74
2021/12/11 17:39:37;;;;;;;12.43;7.35;;;4.40;59.30;;;2.60;66.32;101554.56;8420750;28;20412;-75